sensor_id;sensor_type;location;lat;lon;timestamp;P1;durP1;ratioP1;P2;durP2;ratioP2
1402;SDS011;696;48.546;9.896;2023-01-10T00:00:08;2.03;;;1.10;;
1402;SDS011;696;48.546;9.896;2023-01-10T00:02:34;1.88;;;1.10;;
1402;SDS011;696;48.546;9.896;2023-01-10T00:05:00;2.40;;;0.95;;
1402;SDS011;696;48.546;9.896;2023-01-10T00:07:25;1.70;;;1.13;;
1402;SDS011;696;48.546;9.896;2023-01-10T00:09:50;3.90;;;1.23;;
1402;SDS011;696;48.546;9.896;2023-01-10T00:12:16;1.15;;;0.98;;
1402;SDS011;696;48.546;9.896;2023-01-10T00:15:00;1.40;;;1.02;;
1402;SDS011;696;48.546;9.896;2023-01-10T00:17:25;1.02;;;0.95;;
1402;SDS011;696;48.546;9.896;2023-01-10T00:19:50;1.27;;;0.82;;
1402;SDS011;696;48.546;9.896;2023-01-10T00:22:16;1.25;;;1.05;;
1402;SDS011;696;48.546;9.896;2023-01-10T00:24:43;8.23;;;1.70;;
1402;SDS011;696;48.546;9.896;2023-01-10T00:27:08;5.10;;;1.08;;
1402;SDS011;696;48.546;9.896;2023-01-10T00:29:36;1.88;;;1.10;;
1402;SDS011;696;48.546;9.896;2023-01-10T00:32:02;1.85;;;1.00;;
1402;SDS011;696;48.546;9.896;2023-01-10T00:34:28;1.15;;;0.93;;
1402;SDS011;696;48.546;9.896;2023-01-10T00:36:55;3.03;;;1.10;;
1402;SDS011;696;48.546;9.896;2023-01-10T00:39:20;1.38;;;1.08;;
1402;SDS011;696;48.546;9.896;2023-01-10T00:41:46;1.40;;;1.30;;
1402;SDS011;696;48.546;9.896;2023-01-10T00:44:30;1.02;;;0.70;;
1402;SDS011;696;48.546;9.896;2023-01-10T00:46:55;0.80;;;0.60;;
1402;SDS011;696;48.546;9.896;2023-01-10T00:49:20;1.20;;;0.98;;
1402;SDS011;696;48.546;9.896;2023-01-10T00:51:46;1.42;;;0.90;;
1402;SDS011;696;48.546;9.896;2023-01-10T00:54:12;2.45;;;1.05;;
1402;SDS011;696;48.546;9.896;2023-01-10T00:56:38;2.30;;;0.88;;
1402;SDS011;696;48.546;9.896;2023-01-10T00:59:03;0.88;;;0.88;;
1402;SDS011;696;48.546;9.896;2023-01-10T01:01:29;3.50;;;1.30;;
1402;SDS011;696;48.546;9.896;2023-01-10T01:03:55;0.90;;;0.70;;
1402;SDS011;696;48.546;9.896;2023-01-10T01:06:20;0.90;;;0.77;;
1402;SDS011;696;48.546;9.896;2023-01-10T01:08:45;1.15;;;0.77;;
1402;SDS011;696;48.546;9.896;2023-01-10T01:11:11;0.60;;;0.60;;
1402;SDS011;696;48.546;9.896;2023-01-10T01:13:36;0.60;;;0.60;;
1402;SDS011;696;48.546;9.896;2023-01-10T01:16:02;0.95;;;0.80;;
1402;SDS011;696;48.546;9.896;2023-01-10T01:18:27;0.82;;;0.75;;
1402;SDS011;696;48.546;9.896;2023-01-10T01:20:53;0.95;;;0.70;;
1402;SDS011;696;48.546;9.896;2023-01-10T01:23:21;2.50;;;0.77;;
1402;SDS011;696;48.546;9.896;2023-01-10T01:25:50;0.73;;;0.60;;
1402;SDS011;696;48.546;9.896;2023-01-10T01:28:16;1.35;;;0.70;;
1402;SDS011;696;48.546;9.896;2023-01-10T01:30:41;0.80;;;0.80;;
1402;SDS011;696;48.546;9.896;2023-01-10T01:33:07;0.80;;;0.65;;
1402;SDS011;696;48.546;9.896;2023-01-10T01:35:32;0.50;;;0.50;;
1402;SDS011;696;48.546;9.896;2023-01-10T01:37:58;0.77;;;0.77;;
1402;SDS011;696;48.546;9.896;2023-01-10T01:40:23;0.88;;;0.63;;
1402;SDS011;696;48.546;9.896;2023-01-10T01:42:49;1.05;;;0.80;;
1402;SDS011;696;48.546;9.896;2023-01-10T01:50:17;0.65;;;0.65;;
1402;SDS011;696;48.546;9.896;2023-01-10T01:53:03;0.98;;;0.85;;
1402;SDS011;696;48.546;9.896;2023-01-10T01:55:36;0.80;;;0.80;;
1402;SDS011;696;48.546;9.896;2023-01-10T01:58:03;1.13;;;0.93;;
1402;SDS011;696;48.546;9.896;2023-01-10T02:00:31;1.27;;;1.08;;
1402;SDS011;696;48.546;9.896;2023-01-10T02:02:56;1.60;;;1.33;;
1402;SDS011;696;48.546;9.896;2023-01-10T02:05:23;2.20;;;1.50;;
1402;SDS011;696;48.546;9.896;2023-01-10T02:07:50;2.75;;;1.20;;
1402;SDS011;696;48.546;9.896;2023-01-10T02:13:05;1.42;;;1.33;;
1402;SDS011;696;48.546;9.896;2023-01-10T02:15:32;2.17;;;1.30;;
1402;SDS011;696;48.546;9.896;2023-01-10T02:17:58;1.50;;;1.40;;
1402;SDS011;696;48.546;9.896;2023-01-10T02:20:24;2.15;;;1.40;;
1402;SDS011;696;48.546;9.896;2023-01-10T02:33:56;1.75;;;1.30;;
1402;SDS011;696;48.546;9.896;2023-01-10T02:39:18;1.98;;;1.05;;
1402;SDS011;696;48.546;9.896;2023-01-10T02:44:46;0.70;;;0.70;;
1402;SDS011;696;48.546;9.896;2023-01-10T02:47:10;0.90;;;0.90;;
1402;SDS011;696;48.546;9.896;2023-01-10T02:49:44;1.65;;;1.08;;
1402;SDS011;696;48.546;9.896;2023-01-10T02:54:36;0.95;;;0.88;;
1402;SDS011;696;48.546;9.896;2023-01-10T03:00:02;1.30;;;1.20;;
1402;SDS011;696;48.546;9.896;2023-01-10T03:02:42;1.55;;;1.45;;
1402;SDS011;696;48.546;9.896;2023-01-10T03:08:16;1.92;;;1.48;;
1402;SDS011;696;48.546;9.896;2023-01-10T03:10:49;1.33;;;1.23;;
1402;SDS011;696;48.546;9.896;2023-01-10T03:13:40;2.85;;;1.35;;
1402;SDS011;696;48.546;9.896;2023-01-10T03:16:11;1.02;;;1.00;;
1402;SDS011;696;48.546;9.896;2023-01-10T03:21:28;0.90;;;0.90;;
1402;SDS011;696;48.546;9.896;2023-01-10T03:23:55;0.70;;;0.70;;
1402;SDS011;696;48.546;9.896;2023-01-10T03:26:29;0.82;;;0.82;;
1402;SDS011;696;48.546;9.896;2023-01-10T03:29:18;0.70;;;0.70;;
1402;SDS011;696;48.546;9.896;2023-01-10T03:31:53;0.70;;;0.70;;
1402;SDS011;696;48.546;9.896;2023-01-10T03:34:20;0.65;;;0.65;;
1402;SDS011;696;48.546;9.896;2023-01-10T03:42:22;0.47;;;0.47;;
1402;SDS011;696;48.546;9.896;2023-01-10T03:47:42;0.60;;;0.60;;
1402;SDS011;696;48.546;9.896;2023-01-10T03:50:19;0.85;;;0.75;;
1402;SDS011;696;48.546;9.896;2023-01-10T03:52:46;0.50;;;0.50;;
1402;SDS011;696;48.546;9.896;2023-01-10T03:55:13;0.50;;;0.50;;
1402;SDS011;696;48.546;9.896;2023-01-10T03:57:42;0.50;;;0.50;;
1402;SDS011;696;48.546;9.896;2023-01-10T04:00:09;0.47;;;0.47;;
1402;SDS011;696;48.546;9.896;2023-01-10T04:02:36;1.33;;;0.50;;
1402;SDS011;696;48.546;9.896;2023-01-10T04:05:01;0.50;;;0.50;;
1402;SDS011;696;48.546;9.896;2023-01-10T04:07:27;0.40;;;0.40;;
1402;SDS011;696;48.546;9.896;2023-01-10T04:09:52;0.50;;;0.50;;
1402;SDS011;696;48.546;9.896;2023-01-10T04:12:17;0.60;;;0.60;;
1402;SDS011;696;48.546;9.896;2023-01-10T04:14:43;0.63;;;0.63;;
1402;SDS011;696;48.546;9.896;2023-01-10T04:17:12;0.60;;;0.60;;
1402;SDS011;696;48.546;9.896;2023-01-10T04:19:38;0.80;;;0.80;;
1402;SDS011;696;48.546;9.896;2023-01-10T04:22:04;0.80;;;0.80;;
1402;SDS011;696;48.546;9.896;2023-01-10T04:24:32;0.95;;;0.85;;
1402;SDS011;696;48.546;9.896;2023-01-10T04:26:57;3.33;;;0.95;;
1402;SDS011;696;48.546;9.896;2023-01-10T04:29:22;4.35;;;1.30;;
1402;SDS011;696;48.546;9.896;2023-01-10T04:31:48;3.15;;;1.77;;
1402;SDS011;696;48.546;9.896;2023-01-10T04:34:14;3.95;;;2.08;;
1402;SDS011;696;48.546;9.896;2023-01-10T04:36:39;2.97;;;1.98;;
1402;SDS011;696;48.546;9.896;2023-01-10T04:39:04;4.82;;;2.30;;
1402;SDS011;696;48.546;9.896;2023-01-10T04:41:30;2.55;;;2.20;;
1402;SDS011;696;48.546;9.896;2023-01-10T04:43:55;4.30;;;2.40;;
1402;SDS011;696;48.546;9.896;2023-01-10T04:46:21;3.72;;;2.50;;
1402;SDS011;696;48.546;9.896;2023-01-10T04:48:46;6.50;;;2.65;;
1402;SDS011;696;48.546;9.896;2023-01-10T04:51:11;4.32;;;2.97;;
1402;SDS011;696;48.546;9.896;2023-01-10T04:53:37;2.70;;;2.35;;
1402;SDS011;696;48.546;9.896;2023-01-10T04:56:06;3.60;;;2.55;;
1402;SDS011;696;48.546;9.896;2023-01-10T04:58:36;4.78;;;2.38;;
1402;SDS011;696;48.546;9.896;2023-01-10T05:01:12;6.57;;;2.28;;
1402;SDS011;696;48.546;9.896;2023-01-10T05:03:39;3.65;;;1.80;;
1402;SDS011;696;48.546;9.896;2023-01-10T05:06:05;5.35;;;2.20;;
1402;SDS011;696;48.546;9.896;2023-01-10T05:08:30;7.97;;;2.90;;
1402;SDS011;696;48.546;9.896;2023-01-10T05:10:56;6.45;;;3.45;;
1402;SDS011;696;48.546;9.896;2023-01-10T05:13:21;5.28;;;2.70;;
1402;SDS011;696;48.546;9.896;2023-01-10T05:15:47;13.50;;;3.42;;
1402;SDS011;696;48.546;9.896;2023-01-10T05:18:12;5.03;;;2.63;;
1402;SDS011;696;48.546;9.896;2023-01-10T05:20:37;12.88;;;3.53;;
1402;SDS011;696;48.546;9.896;2023-01-10T05:23:03;10.27;;;3.42;;
1402;SDS011;696;48.546;9.896;2023-01-10T05:25:28;6.47;;;3.15;;
1402;SDS011;696;48.546;9.896;2023-01-10T05:27:53;4.32;;;2.88;;
1402;SDS011;696;48.546;9.896;2023-01-10T05:30:19;9.70;;;3.50;;
1402;SDS011;696;48.546;9.896;2023-01-10T05:32:44;5.50;;;2.72;;
1402;SDS011;696;48.546;9.896;2023-01-10T05:35:09;7.57;;;3.72;;
1402;SDS011;696;48.546;9.896;2023-01-10T05:37:35;10.30;;;3.40;;
1402;SDS011;696;48.546;9.896;2023-01-10T05:40:00;14.98;;;3.35;;
1402;SDS011;696;48.546;9.896;2023-01-10T05:42:26;8.45;;;3.15;;
1402;SDS011;696;48.546;9.896;2023-01-10T05:44:51;5.60;;;3.28;;
1402;SDS011;696;48.546;9.896;2023-01-10T05:47:16;4.25;;;2.80;;
1402;SDS011;696;48.546;9.896;2023-01-10T05:49:42;2.85;;;2.17;;
1402;SDS011;696;48.546;9.896;2023-01-10T05:52:07;9.18;;;2.75;;
1402;SDS011;696;48.546;9.896;2023-01-10T05:54:32;4.38;;;2.47;;
1402;SDS011;696;48.546;9.896;2023-01-10T05:56:58;9.68;;;3.10;;
1402;SDS011;696;48.546;9.896;2023-01-10T05:59:23;3.88;;;2.38;;
1402;SDS011;696;48.546;9.896;2023-01-10T06:01:48;5.43;;;2.58;;
1402;SDS011;696;48.546;9.896;2023-01-10T06:04:14;6.63;;;2.67;;
1402;SDS011;696;48.546;9.896;2023-01-10T06:06:39;3.63;;;2.13;;
1402;SDS011;696;48.546;9.896;2023-01-10T06:09:05;5.00;;;2.33;;
1402;SDS011;696;48.546;9.896;2023-01-10T06:11:30;3.55;;;2.25;;
1402;SDS011;696;48.546;9.896;2023-01-10T06:14:00;2.65;;;2.03;;
1402;SDS011;696;48.546;9.896;2023-01-10T06:16:25;2.22;;;1.80;;
1402;SDS011;696;48.546;9.896;2023-01-10T06:18:51;3.20;;;2.20;;
1402;SDS011;696;48.546;9.896;2023-01-10T06:21:16;9.85;;;2.70;;
1402;SDS011;696;48.546;9.896;2023-01-10T06:23:41;7.57;;;3.13;;
1402;SDS011;696;48.546;9.896;2023-01-10T06:26:07;8.48;;;2.17;;
1402;SDS011;696;48.546;9.896;2023-01-10T06:28:32;4.43;;;2.03;;
1402;SDS011;696;48.546;9.896;2023-01-10T06:30:57;5.13;;;2.40;;
1402;SDS011;696;48.546;9.896;2023-01-10T06:33:23;3.92;;;2.00;;
1402;SDS011;696;48.546;9.896;2023-01-10T06:35:48;3.13;;;2.08;;
1402;SDS011;696;48.546;9.896;2023-01-10T06:38:14;2.70;;;1.77;;
1402;SDS011;696;48.546;9.896;2023-01-10T06:40:39;15.00;;;2.58;;
1402;SDS011;696;48.546;9.896;2023-01-10T06:43:04;2.58;;;1.67;;
1402;SDS011;696;48.546;9.896;2023-01-10T06:45:30;6.80;;;2.53;;
1402;SDS011;696;48.546;9.896;2023-01-10T06:47:55;7.00;;;2.60;;
1402;SDS011;696;48.546;9.896;2023-01-10T06:50:21;6.38;;;2.40;;
1402;SDS011;696;48.546;9.896;2023-01-10T06:52:53;7.80;;;2.40;;
1402;SDS011;696;48.546;9.896;2023-01-10T06:55:25;6.35;;;2.80;;
1402;SDS011;696;48.546;9.896;2023-01-10T06:57:55;5.43;;;2.13;;
1402;SDS011;696;48.546;9.896;2023-01-10T07:00:22;3.30;;;2.10;;
1402;SDS011;696;48.546;9.896;2023-01-10T07:02:48;5.15;;;1.75;;
1402;SDS011;696;48.546;9.896;2023-01-10T07:05:14;6.43;;;2.30;;
1402;SDS011;696;48.546;9.896;2023-01-10T07:07:39;5.93;;;2.20;;
1402;SDS011;696;48.546;9.896;2023-01-10T07:10:04;6.90;;;1.98;;
1402;SDS011;696;48.546;9.896;2023-01-10T07:12:30;5.20;;;2.38;;
1402;SDS011;696;48.546;9.896;2023-01-10T07:14:55;8.93;;;2.60;;
1402;SDS011;696;48.546;9.896;2023-01-10T07:17:21;8.23;;;2.72;;
1402;SDS011;696;48.546;9.896;2023-01-10T07:19:46;5.05;;;2.13;;
1402;SDS011;696;48.546;9.896;2023-01-10T07:22:11;11.80;;;2.42;;
1402;SDS011;696;48.546;9.896;2023-01-10T07:24:37;5.97;;;1.88;;
1402;SDS011;696;48.546;9.896;2023-01-10T07:27:02;6.07;;;2.08;;
1402;SDS011;696;48.546;9.896;2023-01-10T07:29:27;4.05;;;1.95;;
1402;SDS011;696;48.546;9.896;2023-01-10T07:31:53;6.35;;;1.83;;
1402;SDS011;696;48.546;9.896;2023-01-10T07:34:18;3.20;;;1.52;;
1402;SDS011;696;48.546;9.896;2023-01-10T07:36:43;4.45;;;2.05;;
1402;SDS011;696;48.546;9.896;2023-01-10T07:39:09;4.45;;;2.05;;
1402;SDS011;696;48.546;9.896;2023-01-10T07:41:34;3.97;;;1.80;;
1402;SDS011;696;48.546;9.896;2023-01-10T07:44:00;7.13;;;2.08;;
1402;SDS011;696;48.546;9.896;2023-01-10T07:46:25;7.72;;;1.83;;
1402;SDS011;696;48.546;9.896;2023-01-10T07:48:50;3.60;;;1.65;;
1402;SDS011;696;48.546;9.896;2023-01-10T07:51:16;3.65;;;1.45;;
1402;SDS011;696;48.546;9.896;2023-01-10T07:53:41;5.22;;;1.67;;
1402;SDS011;696;48.546;9.896;2023-01-10T07:56:07;3.45;;;1.65;;
1402;SDS011;696;48.546;9.896;2023-01-10T07:58:32;19.50;;;2.90;;
1402;SDS011;696;48.546;9.896;2023-01-10T08:00:58;5.15;;;1.77;;
1402;SDS011;696;48.546;9.896;2023-01-10T08:03:24;5.03;;;1.83;;
1402;SDS011;696;48.546;9.896;2023-01-10T08:05:56;8.13;;;2.42;;
1402;SDS011;696;48.546;9.896;2023-01-10T08:08:24;4.60;;;1.20;;
1402;SDS011;696;48.546;9.896;2023-01-10T08:10:49;3.95;;;1.60;;
1402;SDS011;696;48.546;9.896;2023-01-10T08:13:15;9.27;;;1.83;;
1402;SDS011;696;48.546;9.896;2023-01-10T08:15:40;5.45;;;1.85;;
1402;SDS011;696;48.546;9.896;2023-01-10T08:18:05;4.63;;;1.90;;
1402;SDS011;696;48.546;9.896;2023-01-10T08:20:31;4.25;;;2.03;;
1402;SDS011;696;48.546;9.896;2023-01-10T08:22:56;5.18;;;2.30;;
1402;SDS011;696;48.546;9.896;2023-01-10T08:25:22;6.80;;;2.47;;
1402;SDS011;696;48.546;9.896;2023-01-10T08:27:48;5.03;;;2.20;;
1402;SDS011;696;48.546;9.896;2023-01-10T08:30:13;3.88;;;1.60;;
1402;SDS011;696;48.546;9.896;2023-01-10T08:32:39;10.57;;;4.75;;
1402;SDS011;696;48.546;9.896;2023-01-10T08:35:04;9.50;;;4.68;;
1402;SDS011;696;48.546;9.896;2023-01-10T08:37:30;11.10;;;3.28;;
1402;SDS011;696;48.546;9.896;2023-01-10T08:39:55;7.70;;;3.05;;
1402;SDS011;696;48.546;9.896;2023-01-10T08:42:21;9.25;;;2.15;;
1402;SDS011;696;48.546;9.896;2023-01-10T08:44:46;5.28;;;1.88;;
1402;SDS011;696;48.546;9.896;2023-01-10T08:47:11;3.80;;;1.73;;
1402;SDS011;696;48.546;9.896;2023-01-10T08:49:37;1.63;;;0.95;;
1402;SDS011;696;48.546;9.896;2023-01-10T08:52:02;6.45;;;1.55;;
1402;SDS011;696;48.546;9.896;2023-01-10T08:54:27;8.43;;;1.85;;
1402;SDS011;696;48.546;9.896;2023-01-10T08:56:53;4.82;;;1.40;;
1402;SDS011;696;48.546;9.896;2023-01-10T08:59:18;4.22;;;1.60;;
1402;SDS011;696;48.546;9.896;2023-01-10T09:01:43;8.73;;;1.85;;
1402;SDS011;696;48.546;9.896;2023-01-10T09:04:09;2.47;;;1.20;;
1402;SDS011;696;48.546;9.896;2023-01-10T09:06:35;3.88;;;1.60;;
1402;SDS011;696;48.546;9.896;2023-01-10T09:09:00;2.30;;;1.20;;
1402;SDS011;696;48.546;9.896;2023-01-10T09:11:26;6.30;;;2.03;;
1402;SDS011;696;48.546;9.896;2023-01-10T09:13:51;3.20;;;1.67;;
1402;SDS011;696;48.546;9.896;2023-01-10T09:16:16;3.45;;;1.67;;
1402;SDS011;696;48.546;9.896;2023-01-10T09:18:42;4.93;;;1.77;;
1402;SDS011;696;48.546;9.896;2023-01-10T09:21:07;3.88;;;1.67;;
1402;SDS011;696;48.546;9.896;2023-01-10T09:23:33;5.00;;;1.92;;
1402;SDS011;696;48.546;9.896;2023-01-10T09:25:58;5.57;;;1.63;;
1402;SDS011;696;48.546;9.896;2023-01-10T09:28:24;5.18;;;1.77;;
1402;SDS011;696;48.546;9.896;2023-01-10T09:30:49;4.55;;;1.92;;
1402;SDS011;696;48.546;9.896;2023-01-10T09:33:15;2.92;;;1.60;;
1402;SDS011;696;48.546;9.896;2023-01-10T09:35:41;5.45;;;1.63;;
1402;SDS011;696;48.546;9.896;2023-01-10T09:38:10;7.88;;;2.30;;
1402;SDS011;696;48.546;9.896;2023-01-10T09:46:05;5.60;;;1.83;;
1402;SDS011;696;48.546;9.896;2023-01-10T09:48:40;1.38;;;1.17;;
1402;SDS011;696;48.546;9.896;2023-01-10T09:53:52;4.53;;;1.60;;
1402;SDS011;696;48.546;9.896;2023-01-10T09:56:19;9.52;;;1.75;;
1402;SDS011;696;48.546;9.896;2023-01-10T09:58:45;6.82;;;1.48;;
1402;SDS011;696;48.546;9.896;2023-01-10T10:01:13;6.10;;;1.85;;
1402;SDS011;696;48.546;9.896;2023-01-10T10:03:48;5.22;;;2.53;;
1402;SDS011;696;48.546;9.896;2023-01-10T10:06:34;6.85;;;2.00;;
1402;SDS011;696;48.546;9.896;2023-01-10T10:09:00;3.80;;;2.00;;
1402;SDS011;696;48.546;9.896;2023-01-10T10:14:10;10.43;;;2.17;;
1402;SDS011;696;48.546;9.896;2023-01-10T10:22:23;5.53;;;1.67;;
1402;SDS011;696;48.546;9.896;2023-01-10T10:25:14;4.90;;;2.05;;
1402;SDS011;696;48.546;9.896;2023-01-10T10:28:01;3.08;;;1.65;;
1402;SDS011;696;48.546;9.896;2023-01-10T10:30:55;6.13;;;1.27;;
1402;SDS011;696;48.546;9.896;2023-01-10T10:36:18;2.50;;;1.13;;
1402;SDS011;696;48.546;9.896;2023-01-10T10:38:46;5.18;;;1.77;;
1402;SDS011;696;48.546;9.896;2023-01-10T10:41:34;4.57;;;1.73;;
1402;SDS011;696;48.546;9.896;2023-01-10T10:44:29;3.38;;;1.65;;
1402;SDS011;696;48.546;9.896;2023-01-10T10:46:58;6.35;;;1.85;;
1402;SDS011;696;48.546;9.896;2023-01-10T10:49:37;3.75;;;1.45;;
1402;SDS011;696;48.546;9.896;2023-01-10T10:52:11;4.47;;;1.83;;
1402;SDS011;696;48.546;9.896;2023-01-10T10:54:39;3.30;;;1.58;;
1402;SDS011;696;48.546;9.896;2023-01-10T10:57:05;5.38;;;1.60;;
1402;SDS011;696;48.546;9.896;2023-01-10T10:59:30;7.93;;;1.65;;
1402;SDS011;696;48.546;9.896;2023-01-10T11:01:55;3.83;;;1.48;;
1402;SDS011;696;48.546;9.896;2023-01-10T11:04:21;2.30;;;1.48;;
1402;SDS011;696;48.546;9.896;2023-01-10T11:06:47;3.15;;;1.35;;
1402;SDS011;696;48.546;9.896;2023-01-10T11:09:17;3.10;;;1.48;;
1402;SDS011;696;48.546;9.896;2023-01-10T11:11:57;2.92;;;1.50;;
1402;SDS011;696;48.546;9.896;2023-01-10T11:14:39;5.60;;;2.05;;
1402;SDS011;696;48.546;9.896;2023-01-10T11:17:17;5.60;;;1.70;;
1402;SDS011;696;48.546;9.896;2023-01-10T11:20:03;4.88;;;1.58;;
1402;SDS011;696;48.546;9.896;2023-01-10T11:22:32;2.45;;;1.08;;
1402;SDS011;696;48.546;9.896;2023-01-10T11:25:20;2.85;;;1.25;;
1402;SDS011;696;48.546;9.896;2023-01-10T11:27:50;3.50;;;1.40;;
1402;SDS011;696;48.546;9.896;2023-01-10T11:30:21;2.88;;;1.35;;
1402;SDS011;696;48.546;9.896;2023-01-10T11:32:52;3.58;;;1.60;;
1402;SDS011;696;48.546;9.896;2023-01-10T11:37:58;5.32;;;1.40;;
1402;SDS011;696;48.546;9.896;2023-01-10T11:40:27;4.07;;;1.30;;
1402;SDS011;696;48.546;9.896;2023-01-10T11:42:54;3.45;;;1.58;;
1402;SDS011;696;48.546;9.896;2023-01-10T11:45:22;3.50;;;1.20;;
1402;SDS011;696;48.546;9.896;2023-01-10T11:48:08;3.70;;;1.23;;
1402;SDS011;696;48.546;9.896;2023-01-10T11:50:41;2.70;;;1.13;;
1402;SDS011;696;48.546;9.896;2023-01-10T11:53:35;1.83;;;1.10;;
1402;SDS011;696;48.546;9.896;2023-01-10T11:56:03;3.40;;;1.42;;
1402;SDS011;696;48.546;9.896;2023-01-10T11:58:30;4.95;;;1.48;;
1402;SDS011;696;48.546;9.896;2023-01-10T12:00:57;2.92;;;1.23;;
1402;SDS011;696;48.546;9.896;2023-01-10T12:03:29;1.60;;;1.30;;
1402;SDS011;696;48.546;9.896;2023-01-10T12:08:40;2.53;;;1.17;;
1402;SDS011;696;48.546;9.896;2023-01-10T12:13:45;3.00;;;1.67;;
1402;SDS011;696;48.546;9.896;2023-01-10T12:18:49;2.53;;;1.20;;
1402;SDS011;696;48.546;9.896;2023-01-10T12:21:15;4.43;;;1.10;;
1402;SDS011;696;48.546;9.896;2023-01-10T12:23:45;3.33;;;1.42;;
1402;SDS011;696;48.546;9.896;2023-01-10T12:26:12;3.70;;;1.52;;
1402;SDS011;696;48.546;9.896;2023-01-10T12:28:38;5.75;;;1.50;;
1402;SDS011;696;48.546;9.896;2023-01-10T12:31:09;4.00;;;1.40;;
1402;SDS011;696;48.546;9.896;2023-01-10T12:33:40;5.30;;;1.65;;
1402;SDS011;696;48.546;9.896;2023-01-10T12:36:31;3.90;;;1.50;;
1402;SDS011;696;48.546;9.896;2023-01-10T12:39:19;8.95;;;1.73;;
1402;SDS011;696;48.546;9.896;2023-01-10T12:49:36;5.43;;;1.77;;
1402;SDS011;696;48.546;9.896;2023-01-10T12:52:09;5.43;;;1.30;;
1402;SDS011;696;48.546;9.896;2023-01-10T12:55:00;9.45;;;1.48;;
1402;SDS011;696;48.546;9.896;2023-01-10T12:57:30;5.20;;;1.40;;
1402;SDS011;696;48.546;9.896;2023-01-10T13:00:01;14.45;;;1.38;;
1402;SDS011;696;48.546;9.896;2023-01-10T13:02:33;3.20;;;1.48;;
1402;SDS011;696;48.546;9.896;2023-01-10T13:05:02;4.22;;;1.17;;
1402;SDS011;696;48.546;9.896;2023-01-10T13:07:33;5.20;;;1.00;;
1402;SDS011;696;48.546;9.896;2023-01-10T13:10:02;3.45;;;1.30;;
1402;SDS011;696;48.546;9.896;2023-01-10T13:12:31;7.65;;;1.33;;
1402;SDS011;696;48.546;9.896;2023-01-10T13:15:08;9.65;;;1.17;;
1402;SDS011;696;48.546;9.896;2023-01-10T13:18:04;1.20;;;1.08;;
1402;SDS011;696;48.546;9.896;2023-01-10T13:20:41;2.60;;;1.00;;
1402;SDS011;696;48.546;9.896;2023-01-10T13:23:20;3.10;;;1.15;;
1402;SDS011;696;48.546;9.896;2023-01-10T13:26:01;2.85;;;0.95;;
1402;SDS011;696;48.546;9.896;2023-01-10T13:28:29;2.97;;;1.25;;
1402;SDS011;696;48.546;9.896;2023-01-10T13:30:58;2.70;;;1.00;;
1402;SDS011;696;48.546;9.896;2023-01-10T13:33:29;3.60;;;1.30;;
1402;SDS011;696;48.546;9.896;2023-01-10T13:35:57;2.97;;;1.10;;
1402;SDS011;696;48.546;9.896;2023-01-10T13:38:48;4.47;;;1.35;;
1402;SDS011;696;48.546;9.896;2023-01-10T13:41:15;4.43;;;1.63;;
1402;SDS011;696;48.546;9.896;2023-01-10T13:44:12;2.90;;;1.13;;
1402;SDS011;696;48.546;9.896;2023-01-10T13:46:45;3.47;;;1.45;;
1402;SDS011;696;48.546;9.896;2023-01-10T13:51:39;4.33;;;1.17;;
1402;SDS011;696;48.546;9.896;2023-01-10T13:54:54;3.33;;;1.52;;
1402;SDS011;696;48.546;9.896;2023-01-10T14:05:59;3.92;;;1.65;;
1402;SDS011;696;48.546;9.896;2023-01-10T14:08:25;6.32;;;1.80;;
1402;SDS011;696;48.546;9.896;2023-01-10T14:11:03;3.80;;;1.45;;
1402;SDS011;696;48.546;9.896;2023-01-10T14:13:32;3.13;;;1.45;;
1402;SDS011;696;48.546;9.896;2023-01-10T14:15:58;2.63;;;1.17;;
1402;SDS011;696;48.546;9.896;2023-01-10T14:18:26;3.88;;;1.10;;
1402;SDS011;696;48.546;9.896;2023-01-10T14:21:02;4.43;;;1.15;;
1402;SDS011;696;48.546;9.896;2023-01-10T14:23:36;5.10;;;1.25;;
1402;SDS011;696;48.546;9.896;2023-01-10T14:26:05;3.35;;;1.35;;
1402;SDS011;696;48.546;9.896;2023-01-10T14:28:32;5.10;;;1.45;;
1402;SDS011;696;48.546;9.896;2023-01-10T14:31:00;5.07;;;1.20;;
1402;SDS011;696;48.546;9.896;2023-01-10T14:33:27;2.90;;;1.45;;
1402;SDS011;696;48.546;9.896;2023-01-10T14:35:54;2.15;;;1.05;;
1402;SDS011;696;48.546;9.896;2023-01-10T14:38:23;5.22;;;1.02;;
1402;SDS011;696;48.546;9.896;2023-01-10T14:41:36;2.58;;;1.30;;
1402;SDS011;696;48.546;9.896;2023-01-10T14:43:40;3.72;;;1.15;;
1402;SDS011;696;48.546;9.896;2023-01-10T14:46:18;7.20;;;1.23;;
1402;SDS011;696;48.546;9.896;2023-01-10T14:48:47;5.90;;;1.50;;
1402;SDS011;696;48.546;9.896;2023-01-10T14:56:28;5.07;;;1.10;;
1402;SDS011;696;48.546;9.896;2023-01-10T14:59:14;5.28;;;1.75;;
1402;SDS011;696;48.546;9.896;2023-01-10T15:07:19;2.72;;;1.20;;
1402;SDS011;696;48.546;9.896;2023-01-10T15:09:50;6.95;;;1.60;;
1402;SDS011;696;48.546;9.896;2023-01-10T15:12:19;2.10;;;1.17;;
1402;SDS011;696;48.546;9.896;2023-01-10T15:14:46;4.32;;;1.63;;
1402;SDS011;696;48.546;9.896;2023-01-10T15:17:14;4.85;;;1.38;;
1402;SDS011;696;48.546;9.896;2023-01-10T15:19:41;2.97;;;1.27;;
1402;SDS011;696;48.546;9.896;2023-01-10T15:22:17;4.57;;;1.23;;
1402;SDS011;696;48.546;9.896;2023-01-10T15:27:28;2.47;;;1.27;;
1402;SDS011;696;48.546;9.896;2023-01-10T15:29:54;2.63;;;1.30;;
1402;SDS011;696;48.546;9.896;2023-01-10T15:32:25;3.00;;;1.40;;
1402;SDS011;696;48.546;9.896;2023-01-10T15:34:59;3.63;;;1.58;;
1402;SDS011;696;48.546;9.896;2023-01-10T15:37:26;3.10;;;1.25;;
1402;SDS011;696;48.546;9.896;2023-01-10T15:39:58;3.38;;;1.38;;
1402;SDS011;696;48.546;9.896;2023-01-10T15:42:24;1.25;;;1.05;;
1402;SDS011;696;48.546;9.896;2023-01-10T15:44:50;6.28;;;3.00;;
1402;SDS011;696;48.546;9.896;2023-01-10T15:47:39;4.80;;;2.03;;
1402;SDS011;696;48.546;9.896;2023-01-10T15:50:35;2.15;;;1.38;;
1402;SDS011;696;48.546;9.896;2023-01-10T15:53:07;3.85;;;1.90;;
1402;SDS011;696;48.546;9.896;2023-01-10T15:55:35;2.65;;;1.67;;
1402;SDS011;696;48.546;9.896;2023-01-10T16:00:55;1.45;;;1.17;;
1402;SDS011;696;48.546;9.896;2023-01-10T16:05:52;2.05;;;1.20;;
1402;SDS011;696;48.546;9.896;2023-01-10T16:08:20;3.03;;;1.42;;
1402;SDS011;696;48.546;9.896;2023-01-10T16:10:52;2.20;;;1.25;;
1402;SDS011;696;48.546;9.896;2023-01-10T16:13:18;3.35;;;1.50;;
1402;SDS011;696;48.546;9.896;2023-01-10T16:15:55;5.53;;;1.50;;
1402;SDS011;696;48.546;9.896;2023-01-10T16:18:21;12.10;;;2.75;;
1402;SDS011;696;48.546;9.896;2023-01-10T16:20:47;15.35;;;4.68;;
1402;SDS011;696;48.546;9.896;2023-01-10T16:23:14;10.18;;;3.47;;
1402;SDS011;696;48.546;9.896;2023-01-10T16:25:43;8.82;;;3.05;;
1402;SDS011;696;48.546;9.896;2023-01-10T16:28:11;9.00;;;3.72;;
1402;SDS011;696;48.546;9.896;2023-01-10T16:30:38;18.95;;;2.95;;
1402;SDS011;696;48.546;9.896;2023-01-10T16:33:17;3.95;;;2.78;;
1402;SDS011;696;48.546;9.896;2023-01-10T16:35:47;6.70;;;2.80;;
1402;SDS011;696;48.546;9.896;2023-01-10T16:38:14;9.88;;;3.88;;
1402;SDS011;696;48.546;9.896;2023-01-10T16:40:42;6.93;;;3.88;;
1402;SDS011;696;48.546;9.896;2023-01-10T16:43:09;9.82;;;4.35;;
1402;SDS011;696;48.546;9.896;2023-01-10T16:45:50;17.27;;;3.97;;
1402;SDS011;696;48.546;9.896;2023-01-10T16:48:17;4.82;;;2.90;;
1402;SDS011;696;48.546;9.896;2023-01-10T16:50:43;4.80;;;2.38;;
1402;SDS011;696;48.546;9.896;2023-01-10T16:53:10;2.63;;;1.88;;
1402;SDS011;696;48.546;9.896;2023-01-10T16:58:05;4.22;;;1.98;;
1402;SDS011;696;48.546;9.896;2023-01-10T17:00:30;3.95;;;1.90;;
1402;SDS011;696;48.546;9.896;2023-01-10T17:02:56;2.70;;;1.77;;
1402;SDS011;696;48.546;9.896;2023-01-10T17:05:21;10.45;;;2.28;;
1402;SDS011;696;48.546;9.896;2023-01-10T17:07:47;3.92;;;1.92;;
1402;SDS011;696;48.546;9.896;2023-01-10T17:10:12;5.93;;;2.17;;
1402;SDS011;696;48.546;9.896;2023-01-10T17:12:37;6.53;;;2.67;;
1402;SDS011;696;48.546;9.896;2023-01-10T17:15:04;6.35;;;2.33;;
1402;SDS011;696;48.546;9.896;2023-01-10T17:17:32;5.55;;;2.58;;
1402;SDS011;696;48.546;9.896;2023-01-10T17:19:57;6.15;;;3.00;;
1402;SDS011;696;48.546;9.896;2023-01-10T17:22:23;12.80;;;3.15;;
1402;SDS011;696;48.546;9.896;2023-01-10T17:24:48;6.60;;;2.63;;
1402;SDS011;696;48.546;9.896;2023-01-10T17:27:13;2.92;;;2.08;;
1402;SDS011;696;48.546;9.896;2023-01-10T17:29:39;5.53;;;2.42;;
1402;SDS011;696;48.546;9.896;2023-01-10T17:32:04;8.35;;;2.63;;
1402;SDS011;696;48.546;9.896;2023-01-10T17:34:32;6.43;;;3.17;;